createdAt,value
2023-05-08T00:00:01.386Z,4.03
2023-05-08T00:01:01.251Z,3.13
2023-05-08T00:02:01.310Z,3.70
2023-05-08T00:03:01.793Z,5.10
2023-05-08T00:04:01.896Z,3.80
2023-05-08T00:05:01.424Z,3.50
2023-05-08T00:06:04.016Z,3.27
2023-05-08T00:07:01.296Z,4.17
2023-05-08T00:08:01.718Z,3.97
2023-05-08T00:09:01.943Z,4.57
2023-05-08T00:10:02.099Z,4.83
2023-05-08T00:11:01.627Z,5.83
2023-05-08T00:12:01.591Z,5.97
2023-05-08T00:13:01.579Z,5.37
2023-05-08T00:14:01.818Z,5.40
2023-05-08T00:15:01.829Z,5.77
2023-05-08T00:16:01.705Z,5.17
2023-05-08T00:17:01.342Z,4.13
2023-05-08T00:18:01.627Z,4.63
2023-05-08T00:19:01.671Z,6.57
2023-05-08T00:20:01.601Z,6.43
2023-05-08T00:21:01.593Z,6.17
2023-05-08T00:22:01.558Z,6.53
2023-05-08T00:23:01.302Z,6.80
2023-05-08T00:24:01.666Z,8.63
2023-05-08T00:25:01.540Z,9.33
2023-05-08T00:26:01.252Z,7.27
2023-05-08T00:27:01.683Z,5.93
2023-05-08T00:28:01.562Z,8.93
2023-05-08T00:29:01.289Z,13.57
2023-05-08T00:30:01.327Z,7.47
2023-05-08T00:31:01.684Z,9.00
2023-05-08T00:32:02.079Z,6.37
2023-05-08T00:33:01.347Z,10.43
2023-05-08T00:34:01.702Z,8.67
2023-05-08T00:35:01.334Z,9.70
2023-05-08T00:36:03.625Z,7.50
2023-05-08T00:37:01.311Z,8.87
2023-05-08T00:38:01.251Z,7.70
2023-05-08T00:39:01.256Z,8.27
2023-05-08T00:40:01.355Z,6.30
2023-05-08T00:41:02.480Z,7.40
2023-05-08T00:42:01.284Z,5.53
2023-05-08T00:43:01.690Z,3.73
2023-05-08T00:44:01.287Z,3.83
2023-05-08T00:45:01.856Z,4.63
2023-05-08T00:46:01.426Z,2.67
2023-05-08T00:47:02.013Z,4.07
2023-05-08T00:48:02.148Z,4.90
2023-05-08T00:49:02.389Z,2.70
2023-05-08T00:50:02.438Z,3.63
2023-05-08T00:51:04.092Z,2.53
2023-05-08T00:52:03.581Z,2.70
2023-05-08T00:53:03.641Z,3.43
2023-05-08T00:54:02.415Z,9.47
2023-05-08T00:55:03.928Z,7.23
2023-05-08T00:56:01.817Z,3.37
2023-05-08T00:57:03.129Z,2.40
2023-05-08T00:58:01.618Z,2.53
2023-05-08T00:59:02.693Z,1.13
2023-05-08T01:00:03.421Z,2.10
2023-05-08T01:01:01.822Z,1.37
2023-05-08T01:02:02.142Z,2.57
2023-05-08T01:03:01.849Z,2.50
2023-05-08T01:04:02.130Z,2.77
2023-05-08T01:05:02.522Z,3.00
2023-05-08T01:06:02.038Z,3.23
2023-05-08T01:07:02.094Z,1.63
2023-05-08T01:08:01.630Z,2.57
2023-05-08T01:09:02.638Z,2.67
2023-05-08T01:10:01.688Z,1.73
2023-05-08T01:11:11.147Z,3.13
2023-05-08T01:12:13.472Z,2.80
2023-05-08T01:13:10.687Z,3.03
2023-05-08T01:14:09.948Z,1.97
2023-05-08T01:15:08.513Z,1.53
2023-05-08T01:16:13.735Z,1.63
2023-05-08T01:17:10.937Z,2.67
2023-05-08T01:18:12.439Z,2.50
2023-05-08T01:19:13.511Z,3.00
2023-05-08T01:20:18.457Z,3.53
2023-05-08T01:21:08.929Z,3.33
2023-05-08T01:22:15.603Z,2.97
2023-05-08T01:23:20.737Z,2.60
2023-05-08T01:24:20.095Z,3.87
2023-05-08T01:25:18.769Z,3.33
2023-05-08T01:26:19.252Z,4.23
2023-05-08T01:27:20.702Z,3.33
2023-05-08T01:28:20.732Z,2.97
2023-05-08T01:29:20.741Z,3.63
2023-05-08T01:30:20.701Z,5.07
2023-05-08T01:31:10.976Z,3.53
2023-05-08T01:32:11.318Z,4.03
2023-05-08T01:33:07.192Z,2.30
2023-05-08T01:34:07.076Z,4.13
2023-05-08T01:35:16.728Z,3.93
2023-05-08T01:36:10.701Z,4.27
2023-05-08T01:37:07.472Z,4.00
2023-05-08T01:38:08.007Z,4.57
2023-05-08T01:39:10.693Z,4.03
2023-05-08T01:40:10.522Z,2.90
2023-05-08T01:41:09.605Z,3.97
2023-05-08T01:42:08.451Z,3.83
2023-05-08T01:43:12.983Z,4.97
2023-05-08T01:44:09.817Z,3.83
2023-05-08T01:45:10.129Z,5.43
2023-05-08T01:46:08.727Z,2.97
2023-05-08T01:47:06.829Z,3.30
2023-05-08T01:48:06.840Z,2.73
2023-05-08T01:49:06.164Z,3.93
2023-05-08T01:50:05.196Z,3.87
2023-05-08T01:51:06.418Z,3.47
2023-05-08T01:52:05.845Z,1.73
2023-05-08T01:53:07.767Z,3.03
2023-05-08T01:54:10.117Z,4.17
2023-05-08T01:55:04.416Z,2.53
2023-05-08T01:56:11.123Z,2.27
2023-05-08T01:57:03.649Z,2.13
2023-05-08T01:58:06.363Z,2.87
2023-05-08T01:59:04.394Z,3.30
2023-05-08T02:00:04.137Z,2.73
2023-05-08T02:01:02.869Z,3.33
2023-05-08T02:02:03.020Z,2.27
2023-05-08T02:03:05.058Z,4.13
2023-05-08T02:04:05.505Z,2.83
2023-05-08T02:05:03.020Z,2.23
2023-05-08T02:06:02.474Z,2.87
2023-05-08T02:07:02.477Z,2.63
2023-05-08T02:08:02.274Z,2.40
2023-05-08T02:09:01.945Z,2.27
2023-05-08T02:10:02.275Z,2.20
2023-05-08T02:11:04.110Z,3.10
2023-05-08T02:12:02.672Z,3.23
2023-05-08T02:13:03.478Z,4.00
2023-05-08T02:14:02.940Z,2.80
2023-05-08T02:15:02.245Z,2.80
2023-05-08T02:16:02.635Z,3.20
2023-05-08T02:17:04.669Z,3.20
2023-05-08T02:18:04.664Z,2.27
2023-05-08T02:19:03.586Z,2.70
2023-05-08T02:20:02.769Z,4.47
2023-05-08T02:21:04.501Z,3.43
2023-05-08T02:22:03.198Z,1.93
2023-05-08T02:23:02.126Z,2.20
2023-05-08T02:24:03.637Z,3.13
2023-05-08T02:25:02.537Z,1.97
2023-05-08T02:26:04.329Z,2.87
2023-05-08T02:27:02.218Z,2.90
2023-05-08T02:28:04.602Z,2.77
2023-05-08T02:29:02.969Z,2.40
2023-05-08T02:30:02.630Z,2.57
2023-05-08T02:31:04.360Z,2.03
2023-05-08T02:32:03.177Z,1.60
2023-05-08T02:33:05.856Z,2.97
2023-05-08T02:34:03.541Z,3.00
2023-05-08T02:35:03.776Z,0.93
2023-05-08T02:36:02.967Z,3.03
2023-05-08T02:37:02.986Z,2.93
2023-05-08T02:38:04.421Z,2.67
2023-05-08T02:39:02.916Z,2.67
2023-05-08T02:40:05.628Z,2.27
2023-05-08T02:41:05.140Z,3.20
2023-05-08T02:42:02.287Z,3.37
2023-05-08T02:43:01.952Z,2.47
2023-05-08T02:44:01.795Z,2.33
2023-05-08T02:45:02.706Z,2.30
2023-05-08T02:46:11.661Z,1.37
2023-05-08T02:47:13.452Z,4.13
2023-05-08T02:48:11.333Z,11.53
2023-05-08T02:49:07.167Z,8.27
2023-05-08T02:50:07.161Z,5.10
2023-05-08T02:51:14.279Z,3.67
2023-05-08T02:52:12.146Z,4.43
2023-05-08T02:53:05.631Z,4.17
2023-05-08T02:54:09.248Z,4.00
2023-05-08T02:55:07.562Z,4.63
2023-05-08T02:56:09.016Z,4.43
2023-05-08T02:57:09.747Z,5.50
2023-05-08T02:58:10.967Z,4.40
2023-05-08T02:59:12.291Z,3.27
2023-05-08T03:00:07.060Z,3.20
2023-05-08T03:01:06.188Z,3.27
2023-05-08T03:02:08.731Z,4.40
2023-05-08T03:03:11.043Z,3.57
2023-05-08T03:04:06.334Z,3.67
2023-05-08T03:05:10.367Z,2.43
2023-05-08T03:06:06.068Z,4.10
2023-05-08T03:07:03.581Z,2.90
2023-05-08T03:08:06.368Z,2.57
2023-05-08T03:09:04.392Z,2.77
2023-05-08T03:10:06.337Z,2.17
2023-05-08T03:11:07.906Z,2.47
2023-05-08T03:12:08.360Z,4.30
2023-05-08T03:13:04.921Z,2.60
2023-05-08T03:14:03.316Z,2.63
2023-05-08T03:15:06.677Z,4.60
2023-05-08T03:16:05.436Z,2.87
2023-05-08T03:17:07.632Z,3.10
2023-05-08T03:18:06.896Z,3.83
2023-05-08T03:19:06.723Z,2.87
2023-05-08T03:20:04.504Z,3.23
2023-05-08T03:21:06.427Z,4.20
2023-05-08T03:22:04.236Z,3.37
2023-05-08T03:23:02.892Z,2.97
2023-05-08T03:24:04.488Z,3.87
2023-05-08T03:25:05.930Z,3.00
2023-05-08T03:26:03.704Z,2.77
2023-05-08T03:27:03.742Z,2.57
2023-05-08T03:28:04.239Z,3.37
2023-05-08T03:29:03.507Z,1.90
2023-05-08T03:30:03.561Z,3.17
2023-05-08T03:31:04.184Z,4.20
2023-05-08T03:32:02.718Z,2.77
2023-05-08T03:33:03.849Z,3.27
2023-05-08T03:34:02.199Z,2.87
2023-05-08T03:35:04.569Z,2.83
2023-05-08T03:36:01.635Z,2.67
2023-05-08T03:37:01.937Z,1.87
2023-05-08T03:38:01.959Z,2.03
2023-05-08T03:39:02.389Z,3.17
2023-05-08T03:40:02.734Z,2.57
2023-05-08T03:41:01.998Z,2.73
2023-05-08T03:42:02.456Z,3.33
2023-05-08T03:43:03.645Z,3.27
2023-05-08T03:44:02.659Z,3.10
2023-05-08T03:45:03.213Z,3.83
2023-05-08T03:46:01.697Z,3.17
2023-05-08T03:47:02.639Z,3.97
2023-05-08T03:48:03.819Z,2.97
2023-05-08T03:49:03.910Z,3.10
2023-05-08T03:50:02.678Z,2.17
2023-05-08T03:51:02.557Z,3.37
2023-05-08T03:52:02.704Z,3.67
2023-05-08T03:53:02.221Z,3.20
2023-05-08T03:54:01.475Z,2.67
2023-05-08T03:55:01.691Z,2.93
2023-05-08T03:56:01.825Z,3.20
2023-05-08T03:57:01.352Z,3.43
2023-05-08T03:58:07.491Z,2.57
2023-05-08T03:59:11.577Z,2.70
2023-05-08T04:00:05.651Z,2.60
2023-05-08T04:01:06.891Z,2.23
2023-05-08T04:02:14.965Z,2.03
2023-05-08T04:03:13.039Z,1.63
2023-05-08T04:04:08.823Z,1.30
2023-05-08T04:05:09.561Z,2.83
2023-05-08T04:06:10.223Z,1.97
2023-05-08T04:07:07.069Z,1.37
2023-05-08T04:08:08.967Z,1.37
2023-05-08T04:09:14.813Z,1.07
2023-05-08T04:10:06.474Z,1.53
2023-05-08T04:11:10.430Z,1.33
2023-05-08T04:12:08.917Z,1.53
2023-05-08T04:13:06.385Z,1.53
2023-05-08T04:14:04.132Z,1.70
2023-05-08T04:15:06.712Z,2.60
2023-05-08T04:16:08.740Z,1.87
2023-05-08T04:17:05.945Z,1.60
2023-05-08T04:18:05.964Z,2.00
2023-05-08T04:19:03.837Z,0.73
2023-05-08T04:20:05.978Z,2.77
2023-05-08T04:21:02.390Z,1.83
2023-05-08T04:22:05.698Z,1.70
2023-05-08T04:23:03.289Z,1.93
2023-05-08T04:24:03.617Z,1.40
2023-05-08T04:25:05.243Z,1.63
2023-05-08T04:26:05.202Z,1.80
2023-05-08T04:27:02.650Z,0.93
2023-05-08T04:28:01.557Z,0.83
2023-05-08T04:29:02.072Z,1.17
2023-05-08T04:30:02.284Z,1.77
2023-05-08T04:31:04.047Z,1.73
2023-05-08T04:32:04.309Z,2.53
2023-05-08T04:33:03.427Z,2.00
2023-05-08T04:34:02.524Z,2.27
2023-05-08T04:35:02.169Z,1.73
2023-05-08T04:36:02.341Z,2.00
2023-05-08T04:37:01.696Z,2.77
2023-05-08T04:38:01.914Z,2.00
2023-05-08T04:39:01.571Z,0.93
2023-05-08T04:40:02.334Z,1.97
2023-05-08T04:41:01.665Z,2.10
2023-05-08T04:42:01.311Z,2.00
2023-05-08T04:43:01.692Z,1.23
2023-05-08T04:44:02.578Z,2.03
2023-05-08T04:45:01.786Z,1.40
2023-05-08T04:46:04.531Z,2.93
2023-05-08T04:47:01.306Z,1.80
2023-05-08T04:48:01.546Z,1.77
2023-05-08T04:49:01.453Z,2.27
2023-05-08T04:50:02.980Z,1.80
2023-05-08T04:51:01.303Z,1.53
2023-05-08T04:52:01.700Z,1.97
2023-05-08T04:53:01.611Z,2.17
2023-05-08T04:54:01.525Z,2.33
2023-05-08T04:55:01.849Z,1.63
2023-05-08T04:56:01.312Z,2.13
2023-05-08T04:57:01.592Z,2.53
2023-05-08T04:58:01.614Z,2.70
2023-05-08T04:59:01.300Z,2.40
2023-05-08T05:00:01.686Z,2.27
2023-05-08T05:01:02.612Z,2.83
2023-05-08T05:02:01.852Z,1.87
2023-05-08T05:03:01.717Z,2.47
2023-05-08T05:04:01.273Z,2.17
2023-05-08T05:05:01.615Z,1.77
2023-05-08T05:06:01.989Z,3.10
2023-05-08T05:07:01.726Z,2.53
2023-05-08T05:08:01.580Z,3.30
2023-05-08T05:09:01.249Z,1.37
2023-05-08T05:10:02.069Z,1.90
2023-05-08T05:11:01.729Z,2.93
2023-05-08T05:12:01.245Z,2.53
2023-05-08T05:13:01.696Z,2.57
2023-05-08T05:14:01.630Z,0.93
2023-05-08T05:15:01.263Z,1.90
2023-05-08T05:16:01.361Z,2.37
2023-05-08T05:17:01.323Z,2.30
2023-05-08T05:18:01.694Z,2.53
2023-05-08T05:19:01.665Z,2.53
2023-05-08T05:20:01.340Z,2.00
2023-05-08T05:21:01.649Z,3.00
2023-05-08T05:22:01.910Z,2.73
2023-05-08T05:23:01.553Z,2.47
2023-05-08T05:24:01.302Z,3.30
2023-05-08T05:25:01.249Z,1.87
2023-05-08T05:26:01.319Z,2.67
2023-05-08T05:27:01.708Z,2.40
2023-05-08T05:28:01.635Z,2.67
2023-05-08T05:29:01.255Z,2.30
2023-05-08T05:30:01.842Z,2.10
2023-05-08T05:31:01.842Z,2.23
2023-05-08T05:32:01.727Z,2.13
2023-05-08T05:33:01.776Z,2.50
2023-05-08T05:34:01.308Z,2.00
2023-05-08T05:35:01.259Z,3.03
2023-05-08T05:36:01.338Z,2.60
2023-05-08T05:37:01.255Z,3.37
2023-05-08T05:38:01.249Z,1.87
2023-05-08T05:39:01.244Z,2.93
2023-05-08T05:40:01.422Z,3.73
2023-05-08T05:41:01.306Z,2.53
2023-05-08T05:42:01.681Z,3.20
2023-05-08T05:43:01.721Z,3.37
2023-05-08T05:44:01.527Z,4.30
2023-05-08T05:45:01.657Z,3.53
2023-05-08T05:46:03.900Z,0.90
2023-05-08T05:47:01.283Z,2.53
2023-05-08T05:48:01.678Z,2.90
2023-05-08T05:49:01.585Z,2.43
2023-05-08T05:50:01.247Z,3.70
2023-05-08T05:51:01.929Z,2.37
2023-05-08T05:52:01.604Z,1.93
2023-05-08T05:53:01.222Z,2.17
2023-05-08T05:54:01.304Z,2.17
2023-05-08T05:55:01.440Z,2.87
2023-05-08T05:56:01.607Z,2.73
2023-05-08T05:57:01.312Z,2.90
2023-05-08T05:58:01.942Z,2.53
2023-05-08T05:59:01.307Z,2.23
2023-05-08T06:00:01.753Z,1.90
2023-05-08T06:01:01.285Z,3.63
2023-05-08T06:02:01.274Z,2.83
2023-05-08T06:03:01.773Z,3.10
2023-05-08T06:04:01.755Z,2.50
2023-05-08T06:05:01.742Z,3.37
2023-05-08T06:06:01.809Z,2.73
2023-05-08T06:07:01.567Z,2.00
2023-05-08T06:08:01.735Z,3.80
2023-05-08T06:09:01.261Z,3.47
2023-05-08T06:10:01.348Z,2.40
2023-05-08T06:11:01.633Z,3.80
2023-05-08T06:12:02.220Z,3.33
2023-05-08T06:13:01.683Z,2.97
2023-05-08T06:14:01.629Z,3.30
2023-05-08T06:15:01.282Z,2.00
2023-05-08T06:16:01.315Z,3.53
2023-05-08T06:17:01.524Z,2.80
2023-05-08T06:18:01.298Z,3.30
2023-05-08T06:19:01.646Z,2.33
2023-05-08T06:20:01.290Z,2.87
2023-05-08T06:21:01.633Z,3.40
2023-05-08T06:22:01.494Z,4.00
2023-05-08T06:23:01.242Z,3.07
2023-05-08T06:24:01.322Z,3.93
2023-05-08T06:25:01.301Z,2.90
2023-05-08T06:26:01.593Z,2.90
2023-05-08T06:27:01.710Z,3.23
2023-05-08T06:28:01.379Z,3.03
2023-05-08T06:29:01.677Z,3.13
2023-05-08T06:30:02.222Z,2.67
2023-05-08T06:31:01.634Z,3.63
2023-05-08T06:32:01.355Z,3.03
2023-05-08T06:33:01.703Z,3.70
2023-05-08T06:34:01.738Z,3.37
2023-05-08T06:35:01.250Z,3.00
2023-05-08T06:36:03.542Z,2.53
2023-05-08T06:37:01.316Z,2.73
2023-05-08T06:38:01.566Z,2.87
2023-05-08T06:39:03.697Z,2.10
2023-05-08T06:40:11.498Z,2.80
2023-05-08T06:41:01.309Z,3.50
2023-05-08T06:42:01.725Z,3.13
2023-05-08T06:43:01.598Z,3.20
2023-05-08T06:44:01.296Z,3.03
2023-05-08T06:45:01.708Z,3.00
2023-05-08T06:46:01.355Z,4.03
2023-05-08T06:47:01.907Z,3.07
2023-05-08T06:48:01.765Z,3.00
2023-05-08T06:49:01.245Z,2.60
2023-05-08T06:50:01.991Z,3.03
2023-05-08T06:51:01.677Z,3.57
2023-05-08T06:52:01.946Z,2.97
2023-05-08T06:53:01.292Z,2.67
2023-05-08T06:54:01.917Z,3.00
2023-05-08T06:55:01.302Z,2.87
2023-05-08T06:56:01.551Z,2.83
2023-05-08T06:57:01.643Z,2.93
2023-05-08T06:58:01.700Z,3.70
2023-05-08T06:59:08.219Z,3.23
2023-05-08T07:00:01.337Z,3.03
2023-05-08T07:01:01.393Z,3.27
2023-05-08T07:02:01.675Z,3.33
2023-05-08T07:03:01.733Z,2.80
2023-05-08T07:04:01.306Z,3.80
2023-05-08T07:05:01.469Z,4.10
2023-05-08T07:06:01.585Z,4.27
2023-05-08T07:07:01.357Z,3.87
2023-05-08T07:08:01.269Z,3.53
2023-05-08T07:09:01.801Z,3.07
2023-05-08T07:10:01.296Z,4.00
2023-05-08T07:11:01.858Z,4.87
2023-05-08T07:12:01.396Z,4.80
2023-05-08T07:13:01.337Z,4.53
2023-05-08T07:14:01.249Z,4.23
2023-05-08T07:15:07.853Z,4.17
2023-05-08T07:16:01.504Z,2.63
2023-05-08T07:17:03.070Z,3.30
2023-05-08T07:18:01.677Z,5.27
2023-05-08T07:19:01.595Z,3.10
2023-05-08T07:20:01.319Z,4.80
2023-05-08T07:21:01.623Z,3.73
2023-05-08T07:22:02.062Z,3.13
2023-05-08T07:23:01.739Z,3.13
2023-05-08T07:24:01.302Z,3.53
2023-05-08T07:25:01.247Z,4.37
2023-05-08T07:26:01.918Z,4.87
2023-05-08T07:27:01.324Z,3.57
2023-05-08T07:28:01.701Z,3.73
2023-05-08T07:29:01.314Z,3.10
2023-05-08T07:30:01.275Z,5.17
2023-05-08T07:31:03.782Z,3.83
2023-05-08T07:32:01.759Z,4.53
2023-05-08T07:33:01.320Z,4.07
2023-05-08T07:34:01.589Z,4.23
2023-05-08T07:35:01.730Z,4.83
2023-05-08T07:36:01.306Z,3.67
2023-05-08T07:37:01.301Z,4.13
2023-05-08T07:38:01.618Z,4.73
2023-05-08T07:39:01.296Z,3.70
2023-05-08T07:40:01.295Z,3.30
2023-05-08T07:41:01.693Z,4.73
2023-05-08T07:42:01.323Z,1.90
2023-05-08T07:43:01.256Z,3.20
2023-05-08T07:44:01.318Z,3.10
2023-05-08T07:45:01.439Z,3.97
2023-05-08T07:46:01.675Z,3.17
2023-05-08T07:47:01.385Z,4.50
2023-05-08T07:48:01.266Z,5.17
2023-05-08T07:49:01.266Z,3.63
2023-05-08T07:50:02.163Z,5.47
2023-05-08T07:51:01.615Z,4.07
2023-05-08T07:52:01.634Z,4.37
2023-05-08T07:53:01.352Z,4.60
2023-05-08T07:54:01.293Z,4.10
2023-05-08T07:55:01.550Z,3.80
2023-05-08T07:56:02.026Z,3.33
2023-05-08T07:57:01.247Z,3.77
2023-05-08T07:58:01.343Z,3.27
2023-05-08T07:59:01.315Z,3.07
2023-05-08T08:00:01.345Z,4.13
2023-05-08T08:01:01.352Z,3.93
2023-05-08T08:02:01.741Z,4.93
2023-05-08T08:03:01.582Z,2.33
2023-05-08T08:04:01.359Z,3.63
2023-05-08T08:05:01.510Z,3.83
2023-05-08T08:06:01.311Z,4.47
2023-05-08T08:07:01.681Z,4.27
2023-05-08T08:08:01.585Z,4.73
2023-05-08T08:09:01.286Z,5.00
2023-05-08T08:10:02.326Z,4.23
2023-05-08T08:11:03.075Z,3.73
2023-05-08T08:12:01.272Z,6.03
2023-05-08T08:13:01.331Z,4.27
2023-05-08T08:14:01.684Z,3.47
2023-05-08T08:15:01.753Z,3.90
2023-05-08T08:16:01.615Z,3.90
2023-05-08T08:17:01.265Z,4.33
2023-05-08T08:18:01.466Z,4.60
2023-05-08T08:19:01.320Z,3.53
2023-05-08T08:20:01.543Z,3.07
2023-05-08T08:21:04.513Z,3.93
2023-05-08T08:22:01.660Z,3.80
2023-05-08T08:23:01.593Z,4.70
2023-05-08T08:24:01.333Z,4.43
2023-05-08T08:25:01.259Z,4.43
2023-05-08T08:26:01.664Z,3.27
2023-05-08T08:27:01.416Z,5.80
2023-05-08T08:28:01.614Z,4.33
2023-05-08T08:29:01.924Z,5.97
2023-05-08T08:30:15.611Z,4.30
2023-05-08T08:31:01.717Z,3.07
2023-05-08T08:32:01.310Z,5.00
2023-05-08T08:33:01.701Z,3.90
2023-05-08T08:34:01.664Z,4.27
2023-05-08T08:35:01.296Z,3.93
2023-05-08T08:36:01.598Z,4.07
2023-05-08T08:37:01.655Z,5.07
2023-05-08T08:38:01.290Z,4.80
2023-05-08T08:39:01.302Z,4.20
2023-05-08T08:40:01.705Z,4.30
2023-05-08T08:41:01.318Z,5.23
2023-05-08T08:42:01.875Z,4.97
2023-05-08T08:43:01.320Z,5.33
2023-05-08T08:44:01.329Z,4.47
2023-05-08T08:45:01.737Z,4.40
2023-05-08T08:46:09.621Z,3.40
2023-05-08T08:47:04.364Z,5.00
2023-05-08T08:48:03.318Z,5.33
2023-05-08T08:49:03.632Z,4.97
2023-05-08T08:50:03.209Z,3.67
2023-05-08T08:51:08.874Z,4.93
2023-05-08T08:52:06.017Z,4.40
2023-05-08T08:53:07.290Z,5.90
2023-05-08T08:54:10.008Z,4.37
2023-05-08T08:55:03.881Z,4.70
2023-05-08T08:56:06.807Z,3.70
2023-05-08T08:57:05.365Z,5.37
2023-05-08T08:58:13.316Z,4.63
2023-05-08T08:59:02.236Z,4.13
2023-05-08T09:00:06.496Z,3.23
2023-05-08T09:01:04.478Z,5.83
2023-05-08T09:02:10.258Z,5.73
2023-05-08T09:03:02.660Z,3.60
2023-05-08T09:04:01.673Z,4.07
2023-05-08T09:05:02.508Z,4.60
2023-05-08T09:06:02.511Z,3.83
2023-05-08T09:07:01.636Z,5.03
2023-05-08T09:08:02.273Z,5.27
2023-05-08T09:09:02.587Z,5.03
2023-05-08T09:10:04.954Z,6.23
2023-05-08T09:11:02.184Z,5.63
2023-05-08T09:12:01.306Z,4.57
2023-05-08T09:13:02.811Z,5.47
2023-05-08T09:14:01.700Z,5.33
2023-05-08T09:15:01.333Z,4.00
2023-05-08T09:16:01.938Z,5.87
2023-05-08T09:17:01.742Z,4.23
2023-05-08T09:18:01.854Z,6.80
2023-05-08T09:19:03.377Z,2.90
2023-05-08T09:20:01.895Z,3.50
2023-05-08T09:21:01.984Z,6.00
2023-05-08T09:22:03.729Z,5.60
2023-05-08T09:23:01.623Z,4.77
2023-05-08T09:24:03.922Z,3.97
2023-05-08T09:25:01.628Z,3.67
2023-05-08T09:26:01.449Z,4.87
2023-05-08T09:27:01.694Z,4.13
2023-05-08T09:28:15.214Z,5.67
2023-05-08T09:29:11.855Z,4.77
2023-05-08T09:30:03.991Z,2.93
2023-05-08T09:31:01.261Z,4.63
2023-05-08T09:32:01.306Z,5.87
2023-05-08T09:33:01.691Z,4.97
2023-05-08T09:34:01.669Z,4.97
2023-05-08T09:35:02.541Z,4.17
2023-05-08T09:36:01.254Z,4.77
2023-05-08T09:37:11.695Z,4.67
2023-05-08T09:38:01.232Z,4.60
2023-05-08T09:39:02.024Z,4.67
2023-05-08T09:40:15.151Z,4.63
2023-05-08T09:41:06.422Z,5.90
2023-05-08T09:42:03.116Z,4.87
2023-05-08T09:43:12.043Z,4.10
2023-05-08T09:44:02.959Z,6.37
2023-05-08T09:45:01.316Z,4.73
2023-05-08T09:46:20.804Z,3.93
2023-05-08T09:47:10.806Z,4.10
2023-05-08T09:48:01.310Z,5.13
2023-05-08T09:49:02.742Z,5.23
2023-05-08T09:50:03.877Z,5.10
2023-05-08T09:51:05.590Z,5.23
2023-05-08T09:52:01.423Z,6.50
2023-05-08T09:53:01.297Z,4.97
2023-05-08T09:54:01.307Z,5.57
2023-05-08T09:55:03.219Z,4.23
2023-05-08T09:56:01.782Z,4.60
2023-05-08T09:57:11.038Z,5.10
2023-05-08T09:58:01.297Z,3.77
2023-05-08T09:59:02.307Z,5.10
2023-05-08T10:00:03.974Z,5.13
2023-05-08T10:01:01.758Z,4.17
2023-05-08T10:02:09.726Z,4.27
2023-05-08T10:03:02.487Z,4.87
2023-05-08T10:04:02.888Z,4.20
2023-05-08T10:05:01.992Z,5.03
2023-05-08T10:06:11.479Z,5.33
2023-05-08T10:07:02.863Z,5.83
2023-05-08T10:08:19.597Z,4.97
2023-05-08T10:09:10.787Z,4.33
2023-05-08T10:10:03.994Z,4.57
2023-05-08T10:11:14.830Z,5.20
2023-05-08T10:12:01.498Z,4.13
2023-05-08T10:13:01.603Z,4.30
2023-05-08T10:14:01.314Z,6.27
2023-05-08T10:15:01.313Z,4.60
2023-05-08T10:16:02.113Z,3.77
2023-05-08T10:17:06.989Z,3.87
2023-05-08T10:18:03.974Z,5.17
2023-05-08T10:19:11.156Z,5.30
2023-05-08T10:20:07.094Z,4.40
2023-05-08T10:21:04.500Z,3.87
2023-05-08T10:22:04.006Z,3.10
2023-05-08T10:23:03.335Z,4.13
2023-05-08T10:24:05.131Z,3.27
2023-05-08T10:25:02.738Z,3.07
2023-05-08T10:26:10.712Z,3.30
2023-05-08T10:27:09.090Z,4.17
2023-05-08T10:28:09.414Z,3.33
2023-05-08T10:29:06.440Z,2.80
2023-05-08T10:30:03.419Z,2.50
2023-05-08T10:31:02.577Z,3.87
2023-05-08T10:32:02.056Z,2.73
2023-05-08T10:33:08.160Z,3.13
2023-05-08T10:34:02.741Z,3.63
2023-05-08T10:35:04.852Z,2.67
2023-05-08T10:36:01.423Z,3.27
2023-05-08T10:37:01.608Z,2.40
2023-05-08T10:38:02.918Z,2.40
2023-05-08T10:39:01.973Z,1.93
2023-05-08T10:40:02.846Z,2.40
2023-05-08T10:41:02.063Z,2.17
2023-05-08T10:42:02.085Z,2.00
2023-05-08T10:43:02.629Z,2.17
2023-05-08T10:44:03.439Z,3.33
2023-05-08T10:45:03.774Z,1.90
2023-05-08T10:46:08.503Z,2.13
2023-05-08T10:47:13.893Z,2.77
2023-05-08T10:48:13.159Z,1.07
2023-05-08T10:49:13.398Z,2.90
2023-05-08T10:50:15.488Z,1.83
2023-05-08T10:51:07.230Z,2.83
2023-05-08T10:52:11.359Z,2.13
2023-05-08T10:53:07.027Z,1.90
2023-05-08T10:54:10.080Z,3.07
2023-05-08T10:55:15.805Z,2.37
2023-05-08T10:56:02.122Z,2.17
2023-05-08T10:57:10.194Z,1.17
2023-05-08T10:58:01.975Z,1.90
2023-05-08T10:59:01.330Z,2.30
2023-05-08T11:00:01.249Z,2.67
2023-05-08T11:01:12.351Z,1.77
2023-05-08T11:02:04.171Z,0.93
2023-05-08T11:03:07.077Z,2.00
2023-05-08T11:04:11.300Z,1.57
2023-05-08T11:05:14.787Z,2.17
2023-05-08T11:06:01.670Z,1.17
2023-05-08T11:07:01.401Z,0.40
2023-05-08T11:08:01.315Z,0.80
2023-05-08T11:09:01.850Z,1.23
2023-05-08T11:10:12.693Z,2.00
2023-05-08T11:11:09.602Z,0.87
2023-05-08T11:12:19.494Z,2.30
2023-05-08T11:13:03.361Z,1.90
2023-05-08T11:14:13.990Z,0.77
2023-05-08T11:15:03.854Z,2.50
2023-05-08T11:16:02.532Z,1.90
2023-05-08T11:17:03.268Z,2.43
2023-05-08T11:18:03.138Z,1.90
2023-05-08T11:19:19.052Z,0.63
2023-05-08T11:20:03.408Z,1.10
2023-05-08T11:21:03.597Z,1.50
2023-05-08T11:22:12.053Z,1.07
2023-05-08T11:23:20.702Z,1.80
2023-05-08T11:24:09.935Z,2.27
2023-05-08T11:25:03.630Z,0.37
2023-05-08T11:26:05.238Z,0.73
2023-05-08T11:27:01.706Z,1.50
2023-05-08T11:28:09.576Z,1.23
2023-05-08T11:29:01.238Z,1.43
2023-05-08T11:30:19.228Z,1.60
2023-05-08T11:31:02.612Z,1.73
2023-05-08T11:32:01.317Z,1.30
2023-05-08T11:33:14.756Z,1.67
2023-05-08T11:34:01.322Z,1.53
2023-05-08T11:35:01.578Z,1.57
2023-05-08T11:36:12.249Z,1.70
2023-05-08T11:37:01.955Z,1.17
2023-05-08T11:38:13.118Z,2.57
2023-05-08T11:39:08.055Z,1.73
2023-05-08T11:40:20.713Z,1.43
2023-05-08T11:41:04.084Z,0.70
2023-05-08T11:42:20.712Z,1.90
2023-05-08T11:43:19.173Z,1.37
2023-05-08T11:44:19.008Z,0.90
2023-05-08T11:45:05.766Z,1.73
